Time;durP1;ratioP1;P1;durP2;ratioP2;P2;SDS_P1;SDS_P2;PMS_P1;PMS_P2;Temp;Humidity;BMP_temperature;BMP_pressure;BME280_temperature;BME280_humidity;BME280_pressure;Samples;Min_cycle;Max_cycle;Signal;HPM_P1;HPM_P2
2023/02/18 00:01:07;;;;;;;17.95;2.55;;;18.50;30.10;;;;;;5083124;28;20179;-65
2023/02/18 00:03:34;;;;;;;713.10;32.40;;;18.40;29.30;;;;;;5089266;28;20222;-66
2023/02/18 00:06:00;;;;;;;188.25;19.15;;;18.30;29.50;;;;;;5088889;28;20105;-65
2023/02/18 00:08:27;;;;;;;18.38;5.10;;;18.20;29.40;;;;;;5090481;28;20115;-63
2023/02/18 00:10:54;;;;;;;25.08;11.45;;;18.20;29.30;;;;;;5084455;28;20174;-68
2023/02/18 00:13:20;;;;;;;24.15;6.78;;;18.00;29.40;;;;;;5084104;28;20064;-63
2023/02/18 00:15:47;;;;;;;20.10;1.73;;;18.00;29.50;;;;;;5088064;28;20132;-65
2023/02/18 00:18:13;;;;;;;17.27;5.25;;;17.90;29.80;;;;;;5083200;28;20068;-64
2023/02/18 00:20:40;;;;;;;439.90;45.88;;;17.90;29.70;;;;;;5081118;28;20491;-66
2023/02/18 00:23:06;;;;;;;26.23;2.75;;;17.80;29.30;;;;;;5082631;28;20065;-67
2023/02/18 00:25:45;;;;;;;29.40;2.75;;;17.80;29.60;;;;;;5082729;28;20576;-67
2023/02/18 00:28:12;;;;;;;88.50;9.88;;;17.80;29.70;;;;;;5064598;28;20075;-67
2023/02/18 00:30:42;;;;;;;28.75;2.65;;;17.80;29.00;;;;;;5085516;28;20075;-67
2023/02/18 00:33:09;;;;;;;13.63;2.05;;;17.80;29.20;;;;;;5087167;28;20089;-66
2023/02/18 00:35:35;;;;;;;92.63;8.60;;;17.80;28.50;;;;;;5080220;28;20221;-66
2023/02/18 00:38:01;;;;;;;15.95;3.05;;;17.80;29.10;;;;;;5086258;28;20068;-66
2023/02/18 00:40:28;;;;;;;1999.90;693.08;;;17.80;28.80;;;;;;5082620;28;20449;-65
2023/02/18 00:42:54;;;;;;;1673.75;257.17;;;17.80;29.60;;;;;;5079851;28;20065;-66
2023/02/18 00:45:21;;;;;;;50.17;6.90;;;17.70;29.30;;;;;;5084277;28;20098;-65
2023/02/18 00:47:47;;;;;;;64.13;5.60;;;18.20;29.70;;;;;;5087874;28;20115;-66
2023/02/18 00:50:13;;;;;;;12.73;2.03;;;17.70;29.70;;;;;;5086938;28;20068;-68
2023/02/18 00:52:40;;;;;;;5.72;1.42;;;17.70;29.40;;;;;;5080388;28;20128;-64
2023/02/18 00:55:06;;;;;;;8.32;1.80;;;17.60;28.60;;;;;;5084550;28;20427;-64
2023/02/18 00:57:33;;;;;;;10.55;1.20;;;17.60;29.40;;;;;;5084169;28;20540;-66
2023/02/18 00:59:59;;;;;;;45.17;3.40;;;17.50;28.80;;;;;;5088042;28;20081;-68
2023/02/18 01:02:26;;;;;;;892.15;64.43;;;17.40;29.90;;;;;;5064626;28;20069;-64
2023/02/18 01:04:52;;;;;;;143.98;8.60;;;17.40;29.20;;;;;;5064964;28;20072;-66
2023/02/18 01:07:19;;;;;;;5.15;1.58;;;17.30;29.40;;;;;;5083642;28;20596;-66
2023/02/18 01:09:45;;;;;;;10.00;1.80;;;17.30;28.70;;;;;;5083532;28;20085;-66
2023/02/18 01:12:11;;;;;;;5.88;1.70;;;17.20;28.60;;;;;;5079344;28;20092;-66
2023/02/18 01:14:38;;;;;;;29.35;7.03;;;17.10;28.50;;;;;;5084214;28;20101;-66
2023/02/18 01:17:04;;;;;;;5.80;1.27;;;17.10;28.30;;;;;;5087075;28;20088;-66
2023/02/18 01:19:31;;;;;;;5.97;1.33;;;17.00;28.50;;;;;;5077891;28;20154;-66
2023/02/18 01:21:57;;;;;;;8.43;1.48;;;17.00;28.60;;;;;;5086293;28;20076;-66
2023/02/18 01:24:23;;;;;;;6.80;1.63;;;17.00;29.20;;;;;;5083138;28;20069;-67
2023/02/18 01:26:50;;;;;;;14.82;6.45;;;17.00;29.40;;;;;;5080427;28;20083;-65
2023/02/18 01:29:17;;;;;;;23.02;13.57;;;16.90;30.30;;;;;;5067682;28;20553;-67
2023/02/18 01:31:43;;;;;;;23.50;13.75;;;16.80;30.40;;;;;;5081695;28;22012;-65
2023/02/18 01:34:09;;;;;;;13.50;3.95;;;16.80;31.00;;;;;;5083308;28;20101;-67
2023/02/18 01:36:36;;;;;;;1329.38;90.53;;;16.70;31.00;;;;;;5085897;28;20084;-67
2023/02/18 01:39:04;;;;;;;15.30;3.85;;;16.60;31.40;;;;;;5078785;28;20068;-70
2023/02/18 01:41:30;;;;;;;23.42;3.80;;;16.60;33.70;;;;;;5083888;28;20089;-65
2023/02/18 07:04:56;;;;;;;23.42;5.95;;;13.70;30.60;;;;;;5116257;27;20544;-66
2023/02/18 07:07:22;;;;;;;21.98;5.43;;;13.70;31.10;;;;;;5105989;28;20069;-67
2023/02/18 07:09:48;;;;;;;;;;;13.60;31.40;;;;;;5107685;28;20071;-66
2023/02/18 07:12:15;;;;;;;17.50;4.78;;;13.50;30.80;;;;;;5106579;28;20010;-66
2023/02/18 07:14:41;;;;;;;;;;;13.50;30.80;;;;;;5106989;28;20069;-66
2023/02/18 07:17:07;;;;;;;16.50;5.22;;;13.40;30.50;;;;;;5106704;28;19965;-66
2023/02/18 07:19:33;;;;;;;;;;;13.40;30.80;;;;;;5104919;28;20068;-66
2023/02/18 07:22:00;;;;;;;17.83;4.68;;;13.30;31.20;;;;;;5105468;28;19990;-67
2023/02/18 07:24:26;;;;;;;64.13;6.70;;;13.30;30.90;;;;;;5106519;28;20123;-67
2023/02/18 07:26:52;;;;;;;;;;;13.30;30.50;;;;;;5106351;28;20071;-66
2023/02/18 07:29:19;;;;;;;19.75;7.53;;;13.30;30.80;;;;;;5106470;28;19957;-67
2023/02/18 07:31:45;;;;;;;;;;;13.20;30.80;;;;;;5105954;28;20080;-65
2023/02/18 07:34:11;;;;;;;18.90;6.72;;;13.20;31.10;;;;;;5106812;28;19995;-66
2023/02/18 07:36:37;;;;;;;;;;;13.10;31.20;;;;;;5105645;27;20072;-66
2023/02/18 07:39:04;;;;;;;14.00;5.03;;;13.10;31.10;;;;;;5105829;28;19960;-67
2023/02/18 07:41:30;;;;;;;23.95;7.15;;;13.10;31.00;;;;;;5104660;28;20155;-66
2023/02/18 07:43:57;;;;;;;16.95;6.00;;;13.10;30.80;;;;;;5105138;28;20126;-66
2023/02/18 07:46:23;;;;;;;;;;;13.10;31.20;;;;;;5106788;28;20088;-66
2023/02/18 07:48:49;;;;;;;10.18;5.78;;;13.10;31.30;;;;;;5104775;28;19956;-66
2023/02/18 07:51:15;;;;;;;;;;;13.10;31.30;;;;;;5104422;28;20090;-68
2023/02/18 07:53:42;;;;;;;14.23;4.82;;;13.00;31.90;;;;;;5103583;28;20356;-67
2023/02/18 07:56:09;;;;;;;11.98;5.43;;;13.00;31.40;;;;;;5103640;28;20068;-67
2023/02/18 07:58:37;;;;;;;8.27;3.00;;;13.00;31.00;;;;;;5104681;28;20077;-68
2023/02/18 08:01:13;;;;;;;15.07;6.30;;;13.00;30.90;;;;;;5105767;28;20410;-67
2023/02/18 08:03:40;;;;;;;17.30;5.72;;;13.00;31.00;;;;;;5104281;28;20584;-65
2023/02/18 08:06:07;;;;;;;9.35;4.07;;;12.90;30.80;;;;;;5102215;28;20111;-67
2023/02/18 08:08:34;;;;;;;16.67;4.68;;;12.90;30.60;;;;;;5104035;28;20075;-67
2023/02/18 08:11:02;;;;;;;8.30;4.35;;;12.90;31.00;;;;;;5104881;28;20072;-65
2023/02/18 08:13:29;;;;;;;7.30;2.58;;;12.90;31.00;;;;;;5107078;28;20175;-65
2023/02/18 08:15:57;;;;;;;8.77;2.80;;;12.90;30.70;;;;;;5091216;28;20076;-66
2023/02/18 08:18:25;;;;;;;13.05;11.63;;;12.90;30.60;;;;;;5086652;28;20438;-67
2023/02/18 08:20:53;;;;;;;11.65;2.85;;;12.90;30.70;;;;;;5088933;28;20092;-66
2023/02/18 08:23:24;;;;;;;5.47;2.20;;;12.90;30.70;;;;;;5090133;28;20488;-67
2023/02/18 08:25:52;;;;;;;11.40;2.00;;;12.90;30.60;;;;;;5089656;28;20089;-66
2023/02/18 08:28:21;;;;;;;6.55;2.10;;;12.80;30.00;;;;;;5089594;28;20077;-65
2023/02/18 08:30:49;;;;;;;5.07;1.70;;;12.80;30.20;;;;;;5093317;28;20074;-66
2023/02/18 08:33:16;;;;;;;7.18;1.80;;;12.80;30.60;;;;;;5094297;28;20092;-66
2023/02/18 08:35:43;;;;;;;10.35;2.33;;;12.80;30.80;;;;;;5095069;28;20425;-67
2023/02/18 08:38:10;;;;;;;11.32;4.30;;;12.90;30.70;;;;;;5092121;28;20095;-66
2023/02/18 08:40:36;;;;;;;13.15;7.05;;;12.80;30.80;;;;;;5094932;28;20085;-67
2023/02/18 08:43:03;;;;;;;22.80;10.98;;;12.90;31.00;;;;;;5096521;28;20168;-67
2023/02/18 08:45:29;;;;;;;;;;;12.90;31.00;;;;;;5093136;28;20101;-66
2023/02/18 08:47:55;;;;;;;19.70;10.00;;;12.90;31.50;;;;;;5094121;28;20370;-67
2023/02/18 08:50:25;;;;;;;11.88;5.95;;;12.90;31.60;;;;;;5094502;28;20072;-66
2023/02/18 08:52:52;;;;;;;11.90;4.95;;;12.90;31.70;;;;;;5092691;28;20073;-66
2023/02/18 08:55:21;;;;;;;8.82;3.90;;;12.90;32.00;;;;;;5092629;28;20115;-67
2023/02/18 08:57:48;;;;;;;11.82;4.25;;;12.90;31.50;;;;;;5095374;28;20158;-67
2023/02/18 09:00:16;;;;;;;14.43;5.47;;;12.90;31.90;;;;;;5093551;28;20095;-65
2023/02/18 09:02:43;;;;;;;20.58;8.27;;;12.90;32.00;;;;;;5099608;28;20064;-67
2023/02/18 09:05:10;;;;;;;18.98;10.15;;;12.80;32.50;;;;;;5093918;28;20095;-67
2023/02/18 09:07:37;;;;;;;18.35;9.30;;;12.80;32.30;;;;;;5092293;28;20073;-66
2023/02/18 09:10:04;;;;;;;21.40;10.73;;;12.80;32.30;;;;;;5094285;28;20079;-68
2023/02/18 09:12:31;;;;;;;16.80;7.90;;;12.80;32.30;;;;;;5098357;28;20122;-67
2023/02/18 09:14:57;;;;;;;18.00;7.20;;;12.80;32.80;;;;;;5095203;28;20130;-67
2023/02/18 09:17:24;;;;;;;15.35;8.60;;;12.80;33.10;;;;;;5096966;28;20081;-66
2023/02/18 09:19:50;;;;;;;;;;;12.80;32.00;;;;;;5094815;28;20129;-66
2023/02/18 09:22:16;;;;;;;19.92;8.13;;;12.70;32.70;;;;;;5089532;28;20391;-68
2023/02/18 09:24:42;;;;;;;16.08;8.05;;;12.70;32.70;;;;;;5092332;28;20092;-67
2023/02/18 09:27:09;;;;;;;;;;;12.70;32.90;;;;;;5093178;28;20118;-66
2023/02/18 09:29:38;;;;;;;12.02;4.38;;;12.60;32.70;;;;;;5095814;28;20413;-66
2023/02/18 09:32:06;;;;;;;14.15;4.15;;;12.60;33.00;;;;;;5094665;28;20104;-67
2023/02/18 09:34:33;;;;;;;11.35;3.40;;;12.60;33.50;;;;;;5095649;28;20084;-67
2023/02/18 09:36:59;;;;;;;7.82;2.63;;;12.50;33.70;;;;;;5091718;28;20077;-67
2023/02/18 09:39:25;;;;;;;;;;;12.50;33.30;;;;;;5095308;28;20080;-68
2023/02/18 09:41:58;;;;;;;3.53;1.95;;;12.50;32.90;;;;;;5094630;28;19957;-67
2023/02/18 09:44:34;;;;;;;8.48;2.00;;;12.50;33.00;;;;;;5091265;28;20076;-67
2023/02/18 09:47:06;;;;;;;2.78;2.00;;;12.40;32.60;;;;;;5094305;28;20091;-66
2023/02/18 09:49:37;;;;;;;3.92;2.15;;;12.40;32.60;;;;;;5095401;28;20507;-67
2023/02/18 09:52:17;;;;;;;4.28;1.58;;;12.40;32.90;;;;;;5096072;28;20434;-67
2023/02/18 09:54:43;;;;;;;3.20;1.58;;;12.40;32.90;;;;;;5092283;28;20521;-66
2023/02/18 09:57:17;;;;;;;;;;;12.40;32.90;;;;;;5096584;28;20107;-66
2023/02/18 09:59:44;;;;;;;3.55;1.52;;;12.30;32.70;;;;;;5093131;28;19961;-68
2023/02/18 10:02:18;;;;;;;6.30;1.33;;;12.30;32.80;;;;;;5093434;28;20159;-65
2023/02/18 10:04:49;;;;;;;5.97;1.35;;;12.30;33.00;;;;;;5093370;28;20104;-67
2023/02/18 10:07:30;;;;;;;6.35;1.58;;;12.30;32.80;;;;;;5093003;28;20111;-67
2023/02/18 10:10:01;;;;;;;3.88;1.67;;;12.20;32.70;;;;;;5091742;28;20501;-66
2023/02/18 10:12:31;;;;;;;7.10;1.98;;;12.20;33.10;;;;;;5093106;28;20167;-65
2023/02/18 10:15:00;;;;;;;5.60;1.48;;;12.20;33.10;;;;;;5092008;28;20083;-66
2023/02/18 10:17:31;;;;;;;3.00;1.58;;;12.20;33.10;;;;;;5093865;28;20437;-67
2023/02/18 10:19:59;;;;;;;5.90;2.03;;;12.20;33.20;;;;;;5092297;28;20079;-68
2023/02/18 10:22:26;;;;;;;5.53;1.50;;;12.20;33.10;;;;;;5091240;28;20445;-66
2023/02/18 10:24:59;;;;;;;5.38;1.45;;;12.10;32.90;;;;;;5089638;28;20084;-68
2023/02/18 10:27:31;;;;;;;6.45;1.50;;;12.10;33.50;;;;;;5092313;28;20586;-68
2023/02/18 10:30:23;;;;;;;11.35;1.70;;;12.10;33.40;;;;;;5090078;28;20073;-69
2023/02/18 10:33:01;;;;;;;5.55;1.55;;;12.10;32.90;;;;;;5092793;28;20077;-67
2023/02/18 10:35:36;;;;;;;4.53;1.77;;;12.10;32.70;;;;;;5094336;28;20060;-67
2023/02/18 10:38:43;;;;;;;8.85;1.70;;;12.20;32.70;;;;;;5093460;28;20072;-66
2023/02/18 10:41:44;;;;;;;6.78;1.67;;;12.20;32.40;;;;;;5056307;28;20084;-67
2023/02/18 10:44:21;;;;;;;6.75;1.85;;;12.20;32.60;;;;;;5091787;28;20560;-67
2023/02/18 10:47:00;;;;;;;4.30;1.52;;;12.20;32.50;;;;;;5094190;28;20133;-67
2023/02/18 10:49:54;;;;;;;11.52;1.63;;;12.20;32.80;;;;;;5093938;28;20081;-66
2023/02/18 10:52:20;;;;;;;4.68;1.50;;;12.20;32.90;;;;;;5095684;28;20066;-66
2023/02/18 10:54:51;;;;;;;11.85;1.73;;;12.10;32.60;;;;;;5088498;28;20077;-66
2023/02/18 10:57:23;;;;;;;4.57;1.55;;;12.10;32.80;;;;;;5093059;28;20076;-67
2023/02/18 11:00:10;;;;;;;3.25;1.35;;;12.10;32.50;;;;;;5094747;28;20561;-65
2023/02/18 11:02:38;;;;;;;13.40;1.90;;;12.00;32.30;;;;;;5090444;28;20080;-66
2023/02/18 11:05:25;;;;;;;5.78;1.48;;;12.00;33.00;;;;;;5094309;28;20549;-66
2023/02/18 11:07:54;;;;;;;;;;;12.00;32.40;;;;;;5091314;28;20615;-66
2023/02/18 11:10:28;;;;;;;10.68;1.92;;;11.90;32.70;;;;;;5095609;28;20428;-68
2023/02/18 11:13:02;;;;;;;8.30;1.90;;;11.90;32.90;;;;;;5092790;28;20074;-66
2023/02/18 11:15:29;;;;;;;7.00;2.08;;;11.90;32.80;;;;;;5093426;28;20112;-67
2023/02/18 11:18:10;;;;;;;6.50;2.30;;;11.90;33.10;;;;;;5095511;28;20096;-67
2023/02/18 11:20:37;;;;;;;7.93;2.15;;;11.90;32.60;;;;;;5093942;28;20072;-67
2023/02/18 11:23:07;;;;;;;9.52;2.05;;;11.90;33.10;;;;;;5095636;28;20092;-67
2023/02/18 11:25:34;;;;;;;6.03;2.00;;;11.80;32.70;;;;;;5091205;28;20146;-67
2023/02/18 11:28:16;;;;;;;3.53;1.88;;;11.80;33.50;;;;;;5094345;28;20435;-67
2023/02/18 11:30:48;;;;;;;7.72;1.70;;;11.80;33.10;;;;;;5091187;28;20076;-66
2023/02/18 11:33:29;;;;;;;3.28;1.60;;;11.80;33.30;;;;;;5094878;28;20076;-67
2023/02/18 11:35:58;;;;;;;7.43;1.88;;;11.70;33.60;;;;;;5092252;28;20083;-67
2023/02/18 11:38:58;;;;;;;3.65;1.55;;;11.70;33.30;;;;;;5089874;28;20084;-67
2023/02/18 11:41:41;;;;;;;3.83;1.75;;;11.60;34.40;;;;;;5041752;28;20086;-67
2023/02/18 11:44:35;;;;;;;11.98;1.63;;;11.60;34.00;;;;;;5041080;28;20228;-66
2023/02/18 11:47:18;;;;;;;6.53;1.60;;;11.50;34.90;;;;;;5042062;28;20086;-68
2023/02/18 11:50:08;;;;;;;5.55;1.83;;;11.50;34.80;;;;;;5043147;28;20081;-66
2023/02/18 11:52:37;;;;;;;6.45;1.50;;;11.40;33.50;;;;;;5045200;28;20074;-67
2023/02/18 11:55:20;;;;;;;5.75;1.73;;;11.30;33.90;;;;;;5046095;28;20156;-67
2023/02/18 11:58:07;;;;;;;8.00;1.85;;;11.30;34.80;;;;;;5046138;28;20090;-67
2023/02/18 12:00:43;;;;;;;4.78;1.40;;;11.20;34.90;;;;;;5045114;28;20199;-67
2023/02/18 12:03:31;;;;;;;5.97;1.70;;;11.30;35.40;;;;;;5044562;28;20116;-68
2023/02/18 12:06:01;;;;;;;7.90;1.58;;;11.20;34.60;;;;;;5044705;28;20077;-67
2023/02/18 12:08:31;;;;;;;6.63;1.20;;;11.30;34.70;;;;;;5045177;28;20066;-67
2023/02/18 12:11:07;;;;;;;3.60;1.30;;;11.20;35.00;;;;;;5044544;28;20093;-68
2023/02/18 12:13:56;;;;;;;5.40;1.67;;;11.20;34.30;;;;;;5046192;28;20164;-65
2023/02/18 12:17:01;;;;;;;6.55;1.80;;;11.30;34.70;;;;;;5056792;28;20146;-66
2023/02/18 12:19:44;;;;;;;5.75;1.95;;;11.10;36.00;;;;;;5029732;28;20135;-66
2023/02/18 12:22:38;;;;;;;6.07;1.90;;;11.00;35.90;;;;;;5029255;28;20098;-66
2023/02/18 12:25:28;;;;;;;5.72;1.70;;;11.10;37.00;;;;;;5029579;28;20086;-67
2023/02/18 12:28:06;;;;;;;7.70;1.40;;;11.00;36.80;;;;;;5028056;28;20102;-67
2023/02/18 12:30:42;;;;;;;7.72;1.67;;;10.90;37.70;;;;;;5028313;28;20101;-67
2023/02/18 12:33:23;;;;;;;11.75;1.98;;;10.80;38.60;;;;;;5027933;28;20093;-67
2023/02/18 12:35:52;;;;;;;6.93;1.65;;;10.70;39.00;;;;;;5028945;28;20075;-67
2023/02/18 12:38:37;;;;;;;9.10;2.10;;;10.60;39.30;;;;;;5029127;28;20090;-67
2023/02/18 12:41:12;;;;;;;6.85;2.25;;;10.50;38.60;;;;;;5029183;28;20320;-66
2023/02/18 12:43:42;;;;;;;16.13;2.03;;;10.40;39.60;;;;;;5028720;28;20109;-67
2023/02/18 12:46:35;;;;;;;6.82;2.10;;;10.30;39.80;;;;;;5028791;28;20093;-67
2023/02/18 12:49:36;;;;;;;7.43;1.75;;;10.20;40.20;;;;;;5029197;28;20450;-67
2023/02/18 12:52:27;;;;;;;8.75;2.30;;;10.20;40.10;;;;;;5029064;28;20066;-66
2023/02/18 12:55:15;;;;;;;8.75;2.08;;;10.20;40.00;;;;;;5096068;28;20076;-67
2023/02/18 12:58:12;;;;;;;9.73;2.55;;;10.20;40.30;;;;;;5097236;28;20542;-66
2023/02/18 13:01:23;;;;;;;7.10;2.60;;;10.00;40.70;;;;;;5098595;28;20478;-67
2023/02/18 13:04:21;;;;;;;6.15;2.58;;;9.90;41.00;;;;;;5011534;28;20110;-67
2023/02/18 13:07:00;;;;;;;8.73;2.97;;;9.90;40.80;;;;;;4981025;28;20087;-65
2023/02/18 13:09:59;;;;;;;8.38;2.80;;;9.90;40.80;;;;;;5016476;28;20084;-66
2023/02/18 13:12:44;;;;;;;19.30;3.08;;;9.90;41.30;;;;;;5014828;28;20092;-67
2023/02/18 13:15:27;;;;;;;7.97;3.42;;;9.90;42.10;;;;;;5017477;28;20128;-66
2023/02/18 13:17:59;;;;;;;13.02;3.38;;;9.90;43.00;;;;;;5012624;28;20094;-65
2023/02/18 13:20:37;;;;;;;10.63;3.28;;;9.80;41.90;;;;;;5010973;28;20593;-66
2023/02/18 13:23:04;;;;;;;15.40;3.50;;;9.80;42.00;;;;;;5013540;28;20171;-66
2023/02/18 13:25:38;;;;;;;10.38;3.78;;;9.70;42.00;;;;;;5008943;28;20093;-66
2023/02/18 13:28:22;;;;;;;10.18;3.10;;;9.70;42.60;;;;;;5013413;28;20160;-67
2023/02/18 13:30:54;;;;;;;16.92;3.50;;;9.50;43.30;;;;;;5012470;28;20090;-65
2023/02/18 13:34:02;;;;;;;12.02;3.58;;;9.40;44.00;;;;;;5011815;28;20467;-67
2023/02/18 13:36:40;;;;;;;12.15;3.72;;;9.50;43.60;;;;;;5002574;28;20101;-66
2023/02/18 13:39:22;;;;;;;12.77;4.25;;;9.40;43.80;;;;;;5014355;28;20085;-66
2023/02/18 13:41:50;;;;;;;13.48;3.97;;;9.40;44.80;;;;;;5093178;28;20179;-65
2023/02/18 13:44:22;;;;;;;14.55;3.85;;;9.40;43.70;;;;;;5089550;28;20088;-67
2023/02/18 13:46:52;;;;;;;13.30;3.58;;;9.40;44.20;;;;;;5091317;28;20135;-66
2023/02/18 13:49:22;;;;;;;16.95;3.90;;;9.40;44.80;;;;;;5097699;28;20092;-67
2023/02/18 13:51:52;;;;;;;10.90;3.63;;;9.40;44.60;;;;;;5093030;28;20084;-67
2023/02/18 13:54:30;;;;;;;12.32;3.90;;;9.40;44.20;;;;;;5092886;28;20073;-66
2023/02/18 13:57:11;;;;;;;11.00;3.88;;;9.40;44.60;;;;;;5097025;28;20091;-66
2023/02/18 13:59:56;;;;;;;9.35;4.15;;;9.20;44.60;;;;;;5094994;28;20113;-66
2023/02/18 14:02:23;;;;;;;21.25;4.07;;;9.10;45.70;;;;;;5094620;28;20142;-67
2023/02/18 14:04:55;;;;;;;10.68;3.95;;;9.10;45.70;;;;;;5097307;28;20183;-68
2023/02/18 14:07:40;;;;;;;13.25;3.80;;;9.10;45.20;;;;;;5092312;28;21427;-67
2023/02/18 14:10:15;;;;;;;16.83;4.05;;;9.20;45.60;;;;;;5089177;28;20106;-66
2023/02/18 14:12:57;;;;;;;18.60;4.55;;;9.10;45.70;;;;;;5095400;28;20121;-67
2023/02/18 14:15:23;;;;;;;24.63;3.70;;;9.00;45.60;;;;;;5091688;28;20072;-66
2023/02/18 14:18:10;;;;;;;;;;;9.00;45.50;;;;;;5094458;28;20076;-66
2023/02/18 14:20:39;;;;;;;16.63;4.45;;;9.00;45.70;;;;;;5075063;28;19964;-66
2023/02/18 14:23:18;;;;;;;17.50;4.32;;;9.10;45.60;;;;;;5093062;28;20084;-66
2023/02/18 14:26:13;;;;;;;18.90;4.47;;;9.00;45.20;;;;;;5092018;28;20067;-67
2023/02/18 14:28:53;;;;;;;21.77;4.43;;;9.10;45.60;;;;;;5088472;28;20168;-66
2023/02/18 14:31:33;;;;;;;18.50;4.30;;;9.10;45.60;;;;;;5089962;28;20100;-66
2023/02/18 14:33:59;;;;;;;12.32;4.22;;;9.10;46.00;;;;;;5095128;28;20079;-65
2023/02/18 14:36:25;;;;;;;;;;;9.10;46.80;;;;;;5095352;28;20171;-68
2023/02/18 14:39:04;;;;;;;16.67;4.68;;;9.10;46.70;;;;;;5095758;28;20002;-68
2023/02/18 14:41:56;;;;;;;16.33;3.60;;;9.20;46.40;;;;;;5092068;28;20078;-66
2023/02/18 14:44:32;;;;;;;27.10;6.95;;;9.10;46.50;;;;;;5091632;28;20092;-67
2023/02/18 14:48:06;;;;;;;18.35;4.57;;;9.00;46.60;;;;;;5089541;28;20092;-67
2023/02/18 14:50:37;;;;;;;27.45;5.32;;;9.00;45.60;;;;;;5043063;28;20458;-67
2023/02/18 14:53:09;;;;;;;36.17;6.03;;;9.10;46.60;;;;;;5042016;28;20127;-67
2023/02/18 14:55:43;;;;;;;22.48;5.13;;;9.20;46.60;;;;;;5044250;28;20424;-67
2023/02/18 14:58:36;;;;;;;23.27;4.82;;;9.30;47.50;;;;;;5043241;28;20081;-66
2023/02/18 15:01:29;;;;;;;28.98;5.50;;;9.30;48.00;;;;;;5040744;28;20096;-66
2023/02/18 15:03:56;;;;;;;18.38;5.50;;;9.50;48.90;;;;;;5043798;28;20113;-67
2023/02/18 15:06:33;;;;;;;22.02;6.50;;;9.50;48.10;;;;;;5041904;28;20101;-66
2023/02/18 15:08:59;;;;;;;;;;;9.60;47.90;;;;;;5041542;28;20092;-65
2023/02/18 15:12:06;;;;;;;22.15;6.93;;;9.60;47.00;;;;;;5042571;28;20442;-66
2023/02/18 15:14:37;;;;;;;23.83;7.65;;;9.70;46.60;;;;;;5043873;28;20647;-67
2023/02/18 15:17:06;;;;;;;23.65;7.88;;;9.80;46.40;;;;;;5027605;28;20078;-67
2023/02/18 15:19:46;;;;;;;20.30;7.65;;;9.90;46.20;;;;;;5043401;28;20078;-66
2023/02/18 15:22:23;;;;;;;34.42;7.30;;;10.00;46.00;;;;;;5097334;28;20076;-67
2023/02/18 15:24:52;;;;;;;24.38;6.95;;;10.10;46.10;;;;;;5093011;28;20092;-66
2023/02/18 15:27:24;;;;;;;26.23;6.72;;;10.10;45.70;;;;;;5093071;28;20653;-68
2023/02/18 15:30:16;;;;;;;18.83;6.30;;;10.20;44.70;;;;;;5095991;28;20553;-68
2023/02/18 15:32:56;;;;;;;24.77;6.57;;;10.40;44.60;;;;;;5098152;28;20585;-69
2023/02/18 15:35:28;;;;;;;40.40;7.82;;;10.60;45.50;;;;;;5091048;28;20478;-66
2023/02/18 15:37:57;;;;;;;21.83;5.70;;;10.70;45.40;;;;;;5098479;28;20461;-67
2023/02/18 15:40:30;;;;;;;20.70;5.32;;;10.80;44.70;;;;;;5095881;28;20096;-67
2023/02/18 15:42:59;;;;;;;25.90;5.35;;;11.00;43.80;;;;;;5093124;28;20081;-67
2023/02/18 15:45:32;;;;;;;38.67;5.97;;;11.10;45.60;;;;;;5095929;28;20069;-68
2023/02/18 15:48:00;;;;;;;28.83;6.78;;;11.30;42.50;;;;;;5097572;28;20084;-67
2023/02/18 15:50:35;;;;;;;30.17;5.72;;;11.40;43.70;;;;;;5093776;28;20478;-67
2023/02/18 15:53:13;;;;;;;22.45;5.75;;;11.50;43.60;;;;;;5095891;28;20164;-69
2023/02/18 15:55:42;;;;;;;27.73;5.68;;;11.70;44.60;;;;;;5097129;28;20492;-68
2023/02/18 15:58:14;;;;;;;23.95;5.45;;;11.80;44.30;;;;;;5096617;28;20088;-67
2023/02/18 16:00:49;;;;;;;19.23;5.95;;;11.90;44.40;;;;;;5098190;28;20096;-66
2023/02/18 16:03:32;;;;;;;28.40;5.97;;;12.10;44.50;;;;;;5099914;28;20115;-67
2023/02/18 16:06:19;;;;;;;24.67;5.95;;;12.30;43.10;;;;;;5094156;28;20077;-69
2023/02/18 16:09:47;;;;;;;29.27;6.10;;;12.50;41.30;;;;;;5093605;28;20534;-67
2023/02/18 16:12:31;;;;;;;26.05;6.00;;;12.70;40.90;;;;;;4997985;28;20082;-67
2023/02/18 16:14:59;;;;;;;21.58;5.47;;;13.00;40.80;;;;;;5015604;28;20077;-68
2023/02/18 16:17:28;;;;;;;31.90;5.70;;;13.20;39.70;;;;;;5017834;28;20453;-66
2023/02/18 16:19:57;;;;;;;36.85;7.45;;;13.40;40.20;;;;;;5013964;28;20590;-68
2023/02/18 16:22:26;;;;;;;27.20;5.68;;;13.60;39.50;;;;;;5013914;28;20148;-68
2023/02/18 16:24:58;;;;;;;17.73;5.40;;;13.80;39.90;;;;;;5017325;28;20463;-67
2023/02/18 16:27:32;;;;;;;20.90;4.93;;;14.00;36.60;;;;;;5017304;28;20136;-69
2023/02/18 16:30:13;;;;;;;30.38;4.93;;;14.10;35.40;;;;;;5001052;28;20087;-68
2023/02/18 16:32:40;;;;;;;30.70;5.05;;;14.20;33.70;;;;;;5016276;28;20106;-68
2023/02/18 16:35:06;;;;;;;;;;;14.40;33.50;;;;;;5019810;28;20090;-69
2023/02/18 16:37:38;;;;;;;24.73;4.63;;;14.50;33.50;;;;;;5015475;28;20103;-68
2023/02/18 16:40:29;;;;;;;21.63;3.45;;;14.70;34.10;;;;;;5017032;28;20082;-69
2023/02/18 16:42:57;;;;;;;18.10;3.38;;;14.90;33.80;;;;;;5018748;28;20090;-67
2023/02/18 16:45:35;;;;;;;25.67;3.17;;;15.20;32.60;;;;;;5018569;28;20180;-68
2023/02/18 16:48:02;;;;;;;12.13;2.53;;;15.20;31.90;;;;;;5037026;28;20445;-68
2023/02/18 16:50:31;;;;;;;14.60;2.35;;;15.50;32.20;;;;;;5098216;28;20065;-70
2023/02/18 16:52:58;;;;;;;11.63;2.60;;;15.80;31.60;;;;;;5089754;28;20185;-67
2023/02/18 16:55:27;;;;;;;12.57;3.22;;;16.10;31.50;;;;;;5094865;28;20126;-68
2023/02/18 16:57:54;;;;;;;13.25;3.97;;;16.30;31.10;;;;;;5095703;28;20549;-66
2023/02/18 17:00:22;;;;;;;11.77;1.95;;;16.40;30.70;;;;;;5096132;28;20081;-67
2023/02/18 17:02:51;;;;;;;13.60;2.75;;;16.60;30.30;;;;;;5097632;28;20092;-66
2023/02/18 17:05:20;;;;;;;8.57;2.00;;;16.80;30.50;;;;;;5094102;28;20073;-67
2023/02/18 17:07:48;;;;;;;7.95;1.75;;;17.00;29.70;;;;;;5096554;28;20152;-67
2023/02/18 17:10:15;;;;;;;7.68;1.50;;;17.10;29.70;;;;;;5095576;28;20080;-70
2023/02/18 17:12:42;;;;;;;6.82;1.27;;;17.20;29.00;;;;;;5105791;28;20079;-68
2023/02/18 17:15:21;;;;;;;16.48;1.30;;;17.40;29.40;;;;;;5088846;28;20546;-70
2023/02/18 17:17:47;;;;;;;4.72;1.15;;;17.60;29.20;;;;;;5089647;28;20080;-68
2023/02/18 17:20:14;;;;;;;2.97;1.10;;;17.50;29.20;;;;;;5088922;28;20123;-67
2023/02/18 17:22:41;;;;;;;5.90;1.25;;;17.70;29.70;;;;;;5090247;28;20076;-68
2023/02/18 17:25:20;;;;;;;7.50;1.30;;;17.90;30.10;;;;;;5090805;28;20557;-69
2023/02/18 17:27:46;;;;;;;6.30;1.77;;;18.10;30.20;;;;;;5089796;28;20084;-67
2023/02/18 17:30:13;;;;;;;5.18;1.50;;;18.30;30.30;;;;;;5090046;28;20530;-67
2023/02/18 17:32:40;;;;;;;6.35;1.42;;;18.20;29.60;;;;;;5094161;28;20102;-66
2023/02/18 17:35:07;;;;;;;2.38;1.27;;;18.40;29.50;;;;;;5094802;28;20518;-68
2023/02/18 17:37:33;;;;;;;8.63;1.42;;;18.50;29.60;;;;;;5099117;28;20087;-67
2023/02/18 17:40:00;;;;;;;5.85;1.70;;;18.50;28.80;;;;;;5092267;28;20114;-68
2023/02/18 17:42:26;;;;;;;3.85;1.33;;;18.60;28.90;;;;;;5101697;28;20537;-67
2023/02/18 17:44:53;;;;;;;3.33;1.30;;;18.50;29.00;;;;;;5101832;28;20084;-69
2023/02/18 17:47:19;;;;;;;8.52;1.40;;;18.80;28.60;;;;;;5098594;28;20091;-67
2023/02/18 17:49:46;;;;;;;2.72;1.10;;;18.80;28.50;;;;;;5097675;28;20550;-68
2023/02/18 17:52:29;;;;;;;7.53;1.20;;;18.80;28.60;;;;;;5101653;28;20119;-68
2023/02/18 17:54:56;;;;;;;6.30;1.20;;;19.10;28.50;;;;;;5094362;28;20646;-69
2023/02/18 17:57:22;;;;;;;5.95;1.52;;;19.20;28.40;;;;;;5096639;28;20075;-67
2023/02/18 17:59:49;;;;;;;2.92;1.30;;;19.60;29.10;;;;;;5095309;28;20460;-67
2023/02/18 18:02:26;;;;;;;8.82;1.30;;;19.90;27.90;;;;;;5095609;28;20122;-67
2023/02/18 18:04:53;;;;;;;7.65;1.17;;;20.30;27.40;;;;;;5095007;28;20104;-67
2023/02/18 18:07:20;;;;;;;4.68;1.23;;;20.40;27.20;;;;;;5094508;28;20504;-66
2023/02/18 18:09:46;;;;;;;11.27;1.60;;;20.40;27.10;;;;;;5094162;28;20076;-66
2023/02/18 18:12:16;;;;;;;10.43;1.65;;;20.30;26.50;;;;;;5093259;28;20105;-65
2023/02/18 18:14:42;;;;;;;10.60;1.42;;;20.40;26.90;;;;;;5099676;28;20498;-67
2023/02/18 18:17:11;;;;;;;42.05;3.88;;;20.30;26.30;;;;;;5097189;28;20149;-66
2023/02/18 18:19:38;;;;;;;8.50;1.27;;;20.20;26.40;;;;;;5099160;28;20108;-66
2023/02/18 18:22:06;;;;;;;3.03;1.13;;;20.30;26.90;;;;;;5099323;28;20164;-67
2023/02/18 18:24:33;;;;;;;9.43;1.25;;;20.70;27.70;;;;;;5094977;28;20094;-67
2023/02/18 18:27:00;;;;;;;4.63;1.63;;;20.90;27.10;;;;;;5094548;28;20069;-66
2023/02/18 18:29:26;;;;;;;1181.55;96.97;;;20.80;27.60;;;;;;5094453;28;20601;-64
2023/02/18 18:31:52;;;;;;;17.35;2.45;;;20.80;27.20;;;;;;5095788;28;20475;-64
2023/02/18 18:34:19;;;;;;;402.23;20.35;;;21.00;26.90;;;;;;5097446;28;20099;-66
2023/02/18 18:36:46;;;;;;;28.17;3.22;;;21.10;27.40;;;;;;5099887;28;20476;-65